SARL/AOL METAR and TAF weather

Enter ICAO airport designator
Station Type Date Time Source
SARL METAR 2020/04/05 13:00 UTC NOAA

SARL 051300Z 05005KT CAVOK 21/15 Q1012


Station Type Date Time Source
SARL Decoded METAR 2020/04/05 13:00 UTC NOAA

Paso De Los Libres Aerodrome, Argentina (SARL) 29-41S 057-09W 70M
Apr 05, 2020 - 09:00 AM EDT / 2020.04.05 1300 UTC
Wind: from the NE (050 degrees) at 6 MPH (5 KT):0
Visibility: greater than 7 mile(s):0
Temperature: 69 F (21 C)
Dew Point: 59 F (15 C)
Relative Humidity: 68%
Pressure (altimeter): 29.88 in. Hg (1012 hPa)
ob: SARL 051300Z 05005KT CAVOK 21/15 Q1012
cycle: 13

Station Type Date Time Source
SARL TAF UTC NOAA

Error!

Example: see airport list